NTR weather

Del Norte International Airport
Nuevo Leon, Mexico

Public forecast

Using degrees Celsius for public forecast. Weather courtesy of forecast.io.

METAR (pilot weather report)

Retrieved 2019/04/22 19:40 UTC (21 minutes ago):

MMAN 221940Z 16011KT 10SM SCT070 OVC200 27/14 A2995 RMK 8/027

TAF (pilot weather forecast)

Retrieved 2019/04/22 18:15 UTC (2 hours ago):

TAF TAF MMAN 221713Z 2218/2318 13015KT P6SM SCT030 BKN250 BECMG 2302/2303 00000KT FM230900 00000KT 1SM BR OVC005 FM231600 14010KT 3SM HZ OVC020